createdAt,value
2023-05-16T00:00:13.775Z,10.10
2023-05-16T00:01:13.785Z,10.00
2023-05-16T00:02:13.774Z,10.00
2023-05-16T00:03:13.908Z,9.70
2023-05-16T00:04:14.017Z,10.10
2023-05-16T00:05:13.751Z,10.30
2023-05-16T00:06:13.746Z,9.90
2023-05-16T00:07:13.754Z,11.40
2023-05-16T00:08:13.743Z,9.90
2023-05-16T00:09:13.700Z,9.40
2023-05-16T00:10:13.705Z,9.50
2023-05-16T00:11:13.702Z,9.80
2023-05-16T00:12:13.714Z,10.40
2023-05-16T00:13:13.695Z,10.20
2023-05-16T00:14:13.673Z,10.30
2023-05-16T00:15:13.666Z,10.00
2023-05-16T00:16:13.684Z,9.40
2023-05-16T00:17:13.725Z,10.40
2023-05-16T00:18:13.643Z,10.20
2023-05-16T00:19:13.668Z,10.00
2023-05-16T00:20:13.639Z,10.80
2023-05-16T00:21:13.657Z,10.20
2023-05-16T00:22:13.636Z,10.80
2023-05-16T00:23:13.612Z,11.00
2023-05-16T00:24:13.594Z,10.80
2023-05-16T00:25:13.592Z,11.10
2023-05-16T00:26:13.608Z,10.90
2023-05-16T00:27:13.572Z,11.80
2023-05-16T00:28:13.577Z,10.40
2023-05-16T00:29:13.553Z,11.10
2023-05-16T00:30:13.575Z,11.70
2023-05-16T00:31:13.579Z,12.50
2023-05-16T00:32:13.592Z,13.00
2023-05-16T00:33:13.582Z,12.80
2023-05-16T00:34:13.542Z,12.80
2023-05-16T00:35:13.504Z,14.40
2023-05-16T00:36:13.520Z,14.90
2023-05-16T00:37:13.502Z,14.40
2023-05-16T00:38:13.504Z,14.00
2023-05-16T00:39:13.476Z,13.90
2023-05-16T00:40:13.508Z,15.10
2023-05-16T00:41:13.495Z,15.30
2023-05-16T00:42:13.462Z,14.40
2023-05-16T00:43:13.453Z,13.60
2023-05-16T00:44:13.441Z,14.00
2023-05-16T00:45:13.456Z,13.70
2023-05-16T00:46:13.487Z,13.20
2023-05-16T00:47:13.425Z,13.20
2023-05-16T00:48:13.478Z,12.20
2023-05-16T00:49:13.403Z,12.90
2023-05-16T00:50:13.426Z,11.90
2023-05-16T00:51:13.391Z,11.70
2023-05-16T00:52:13.380Z,12.30
2023-05-16T00:53:13.408Z,11.80
2023-05-16T00:54:13.389Z,12.60
2023-05-16T00:55:13.387Z,12.10
2023-05-16T00:56:13.363Z,12.60
2023-05-16T00:57:13.353Z,12.90
2023-05-16T00:58:13.337Z,13.20
2023-05-16T00:59:13.349Z,12.80
2023-05-16T01:00:13.329Z,12.00
2023-05-16T01:01:13.343Z,11.50
2023-05-16T01:02:13.415Z,12.10
2023-05-16T01:03:13.515Z,11.70
2023-05-16T01:04:13.310Z,12.50
2023-05-16T01:05:13.290Z,12.40
2023-05-16T01:06:13.270Z,12.90
2023-05-16T01:07:13.279Z,12.80
2023-05-16T01:08:13.292Z,13.90
2023-05-16T01:09:13.280Z,14.70
2023-05-16T01:10:13.271Z,13.70
2023-05-16T01:11:13.242Z,12.70
2023-05-16T01:12:13.225Z,12.90
2023-05-16T01:13:13.264Z,12.50
2023-05-16T01:14:13.258Z,13.90
2023-05-16T01:15:13.201Z,14.70
2023-05-16T01:16:13.270Z,14.10
2023-05-16T01:17:13.201Z,14.30
2023-05-16T01:18:13.356Z,14.30
2023-05-16T01:19:13.279Z,14.30
2023-05-16T01:20:13.186Z,14.30
2023-05-16T01:21:13.158Z,13.90
2023-05-16T01:22:13.191Z,15.20
2023-05-16T01:23:13.170Z,14.10
2023-05-16T01:24:13.130Z,14.00
2023-05-16T01:25:13.132Z,14.10
2023-05-16T01:26:13.128Z,13.70
2023-05-16T01:27:13.134Z,14.30
2023-05-16T01:28:13.104Z,14.50
2023-05-16T01:29:13.099Z,14.00
2023-05-16T01:30:13.095Z,13.60
2023-05-16T01:31:13.154Z,15.00
2023-05-16T01:32:13.098Z,14.20
2023-05-16T01:33:13.102Z,14.30
2023-05-16T01:34:13.060Z,14.30
2023-05-16T01:35:13.052Z,13.60
2023-05-16T01:36:13.042Z,14.50
2023-05-16T01:37:13.073Z,13.70
2023-05-16T01:38:13.044Z,13.50
2023-05-16T01:39:13.027Z,14.60
2023-05-16T01:40:13.012Z,14.70
2023-05-16T01:41:13.024Z,14.50
2023-05-16T01:42:13.035Z,13.80
2023-05-16T01:43:12.998Z,14.20
2023-05-16T01:44:12.993Z,14.90
2023-05-16T01:45:12.969Z,14.50
2023-05-16T01:46:13.101Z,13.60
2023-05-16T01:47:13.036Z,14.30
2023-05-16T01:48:13.016Z,13.60
2023-05-16T01:49:12.946Z,14.30
2023-05-16T01:50:12.938Z,12.70
2023-05-16T01:51:12.960Z,13.60
2023-05-16T01:52:12.918Z,12.80
2023-05-16T01:53:12.907Z,13.30
2023-05-16T01:54:12.905Z,13.50
2023-05-16T01:55:12.919Z,13.00
2023-05-16T01:56:12.909Z,15.60
2023-05-16T01:57:12.882Z,15.10
2023-05-16T01:58:12.867Z,13.80
2023-05-16T01:59:12.864Z,13.50
2023-05-16T02:00:12.869Z,13.60
2023-05-16T02:01:12.903Z,14.00
2023-05-16T02:02:12.835Z,16.90
2023-05-16T02:03:12.956Z,16.80
2023-05-16T02:04:13.014Z,16.30
2023-05-16T02:05:12.845Z,16.50
2023-05-16T02:06:12.842Z,15.30
2023-05-16T02:07:12.807Z,14.50
2023-05-16T02:08:12.798Z,13.40
2023-05-16T02:09:12.796Z,13.30
2023-05-16T02:10:12.804Z,14.10
2023-05-16T02:11:12.771Z,14.70
2023-05-16T02:12:12.782Z,14.90
2023-05-16T02:13:12.764Z,13.40
2023-05-16T02:14:12.749Z,14.00
2023-05-16T02:15:12.770Z,14.80
2023-05-16T02:16:12.860Z,14.50
2023-05-16T02:17:12.794Z,14.90
2023-05-16T02:18:12.738Z,15.10
2023-05-16T02:20:12.729Z,13.40
2023-05-16T02:21:12.698Z,14.80
2023-05-16T02:22:12.693Z,13.90
2023-05-16T02:23:12.678Z,14.40
2023-05-16T02:24:12.703Z,14.50
2023-05-16T02:25:12.670Z,15.10
2023-05-16T02:26:12.657Z,15.20
2023-05-16T02:27:13.657Z,13.90
2023-05-16T02:28:12.643Z,14.40
2023-05-16T02:29:12.657Z,14.20
2023-05-16T02:30:12.628Z,14.50
2023-05-16T02:31:12.703Z,13.70
2023-05-16T02:32:12.604Z,14.50
2023-05-16T02:33:12.706Z,14.20
2023-05-16T02:34:12.613Z,14.30
2023-05-16T02:35:12.600Z,15.50
2023-05-16T02:36:12.579Z,14.90
2023-05-16T02:37:13.472Z,14.70
2023-05-16T02:38:13.589Z,14.90
2023-05-16T02:39:12.580Z,14.70
2023-05-16T02:40:12.553Z,15.40
2023-05-16T02:41:12.537Z,15.10
2023-05-16T02:42:12.546Z,14.30
2023-05-16T02:43:12.550Z,14.10
2023-05-16T02:44:12.510Z,14.70
2023-05-16T02:45:12.512Z,14.10
2023-05-16T02:46:12.515Z,15.40
2023-05-16T02:47:12.522Z,14.50
2023-05-16T02:48:12.693Z,15.20
2023-05-16T02:49:12.476Z,14.90
2023-05-16T02:50:12.466Z,14.50
2023-05-16T02:51:12.455Z,14.60
2023-05-16T02:52:12.503Z,15.10
2023-05-16T02:53:12.480Z,14.50
2023-05-16T02:54:12.439Z,14.90
2023-05-16T02:56:13.431Z,13.90
2023-05-16T02:57:12.472Z,14.70
2023-05-16T02:58:12.406Z,14.90
2023-05-16T02:59:12.406Z,14.40
2023-05-16T03:00:12.405Z,13.90
2023-05-16T03:01:12.434Z,13.90
2023-05-16T03:02:12.565Z,14.60
2023-05-16T03:03:12.435Z,13.50
2023-05-16T03:04:12.486Z,14.50
2023-05-16T03:05:12.358Z,14.70
2023-05-16T03:06:12.346Z,15.00
2023-05-16T03:07:12.362Z,14.00
2023-05-16T03:08:12.339Z,14.70
2023-05-16T03:09:12.316Z,13.40
2023-05-16T03:10:12.311Z,14.90
2023-05-16T03:11:12.348Z,14.30
2023-05-16T03:12:12.330Z,14.30
2023-05-16T03:13:12.288Z,14.10
2023-05-16T03:14:12.278Z,13.50
2023-05-16T03:15:12.279Z,14.90
2023-05-16T03:16:12.329Z,14.40
2023-05-16T03:17:12.283Z,15.10
2023-05-16T03:18:12.297Z,13.50
2023-05-16T03:19:12.267Z,14.10
2023-05-16T03:20:12.246Z,14.30
2023-05-16T03:21:12.286Z,13.70
2023-05-16T03:22:12.227Z,13.30
2023-05-16T03:23:12.221Z,13.50
2023-05-16T03:24:12.276Z,13.70
2023-05-16T03:25:12.202Z,13.50
2023-05-16T03:26:12.218Z,14.30
2023-05-16T03:27:12.185Z,14.50
2023-05-16T03:28:14.669Z,14.30
2023-05-16T03:29:12.166Z,14.40
2023-05-16T03:30:12.178Z,15.00
2023-05-16T03:31:12.222Z,14.90
2023-05-16T03:32:12.236Z,14.90
2023-05-16T03:33:12.140Z,14.30
2023-05-16T03:34:12.126Z,14.20
2023-05-16T03:35:12.148Z,13.90
2023-05-16T03:36:12.120Z,14.20
2023-05-16T03:37:12.100Z,13.20
2023-05-16T03:38:12.095Z,11.90
2023-05-16T03:39:12.090Z,12.10
2023-05-16T03:40:12.104Z,11.80
2023-05-16T03:41:12.070Z,12.50
2023-05-16T03:42:12.059Z,10.20
2023-05-16T03:43:12.057Z,11.90
2023-05-16T03:44:12.109Z,11.20
2023-05-16T03:45:12.064Z,12.20
2023-05-16T03:46:12.093Z,11.80
2023-05-16T03:47:12.045Z,11.30
2023-05-16T03:48:12.105Z,11.80
2023-05-16T03:49:12.046Z,11.80
2023-05-16T03:50:12.004Z,11.40
2023-05-16T03:51:12.004Z,11.40
2023-05-16T03:52:12.002Z,11.10
2023-05-16T03:53:11.985Z,11.50
2023-05-16T03:54:12.008Z,11.60
2023-05-16T03:55:11.962Z,11.40
2023-05-16T03:56:11.976Z,12.20
2023-05-16T03:57:11.948Z,11.20
2023-05-16T03:58:11.940Z,11.80
2023-05-16T03:59:11.957Z,12.10
2023-05-16T04:00:11.930Z,12.20
2023-05-16T04:01:11.923Z,12.10
2023-05-16T04:02:11.944Z,12.10
2023-05-16T04:03:11.975Z,11.80
2023-05-16T04:04:11.922Z,12.10
2023-05-16T04:05:11.993Z,11.60
2023-05-16T04:06:11.942Z,12.20
2023-05-16T04:07:11.877Z,12.80
2023-05-16T04:08:11.924Z,12.70
2023-05-16T04:09:11.882Z,13.30
2023-05-16T04:10:11.852Z,12.40
2023-05-16T04:11:11.845Z,12.40
2023-05-16T04:12:11.837Z,12.60
2023-05-16T04:13:11.912Z,11.80
2023-05-16T04:14:11.889Z,11.10
2023-05-16T04:15:11.816Z,11.90
2023-05-16T04:16:11.807Z,12.60
2023-05-16T04:17:11.815Z,12.10
2023-05-16T04:18:11.843Z,13.00
2023-05-16T04:19:11.833Z,12.20
2023-05-16T04:20:11.771Z,12.50
2023-05-16T04:21:11.767Z,12.20
2023-05-16T04:22:11.788Z,12.90
2023-05-16T04:23:11.785Z,12.80
2023-05-16T04:24:11.757Z,12.90
2023-05-16T04:25:11.738Z,12.40
2023-05-16T04:26:11.737Z,12.90
2023-05-16T04:27:11.745Z,12.50
2023-05-16T04:28:11.719Z,12.50
2023-05-16T04:29:11.709Z,12.60
2023-05-16T04:30:11.708Z,12.20
2023-05-16T04:31:11.718Z,11.90
2023-05-16T04:32:11.716Z,12.30
2023-05-16T04:33:11.789Z,12.50
2023-05-16T04:34:11.674Z,12.40
2023-05-16T04:35:11.666Z,11.40
2023-05-16T04:36:11.660Z,11.30
2023-05-16T04:37:11.672Z,11.70
2023-05-16T04:38:11.644Z,11.50
2023-05-16T04:39:11.635Z,11.70
2023-05-16T04:40:11.625Z,11.30
2023-05-16T04:41:11.639Z,10.80
2023-05-16T04:42:11.641Z,10.90
2023-05-16T04:43:11.608Z,11.30
2023-05-16T04:44:11.604Z,11.70
2023-05-16T04:45:11.588Z,10.70
2023-05-16T04:46:11.631Z,10.70
2023-05-16T04:47:11.575Z,11.70
2023-05-16T04:48:11.619Z,12.10
2023-05-16T04:49:11.562Z,11.10
2023-05-16T04:50:11.549Z,10.80
2023-05-16T04:51:11.566Z,11.00
2023-05-16T04:52:11.530Z,11.50
2023-05-16T04:53:11.532Z,11.90
2023-05-16T04:54:11.513Z,11.50
2023-05-16T04:55:11.539Z,11.80
2023-05-16T04:56:11.525Z,11.50
2023-05-16T04:57:11.498Z,12.00
2023-05-16T04:58:11.498Z,11.50
2023-05-16T04:59:11.501Z,11.20
2023-05-16T05:00:11.491Z,12.00
2023-05-16T05:01:11.517Z,12.10
2023-05-16T05:02:11.570Z,12.80
2023-05-16T05:03:11.526Z,13.70
2023-05-16T05:04:11.436Z,12.50
2023-05-16T05:05:11.530Z,12.30
2023-05-16T05:06:11.422Z,12.30
2023-05-16T05:07:11.414Z,12.00
2023-05-16T05:08:11.425Z,12.30
2023-05-16T05:09:11.425Z,12.30
2023-05-16T05:10:11.410Z,10.90
2023-05-16T05:11:11.374Z,10.60
2023-05-16T05:12:11.388Z,11.20
2023-05-16T05:13:11.370Z,11.10
2023-05-16T05:14:11.377Z,10.30
2023-05-16T05:15:11.356Z,11.50
2023-05-16T05:16:11.335Z,10.50
2023-05-16T05:17:11.357Z,10.40
2023-05-16T05:18:11.486Z,10.00
2023-05-16T05:19:11.423Z,9.60
2023-05-16T05:20:11.318Z,11.20
2023-05-16T05:21:11.310Z,10.40
2023-05-16T05:22:11.292Z,10.40
2023-05-16T05:23:11.286Z,9.80
2023-05-16T05:24:11.309Z,9.90
2023-05-16T05:25:11.272Z,10.50
2023-05-16T05:26:11.265Z,10.20
2023-05-16T05:27:11.251Z,10.80
2023-05-16T05:28:11.275Z,9.60
2023-05-16T05:29:11.278Z,10.30
2023-05-16T05:30:11.362Z,9.90
2023-05-16T05:31:11.248Z,10.70
2023-05-16T05:32:11.240Z,10.10
2023-05-16T05:33:11.308Z,10.40
2023-05-16T05:34:11.207Z,10.10
2023-05-16T05:35:11.190Z,10.80
2023-05-16T05:36:11.182Z,11.40
2023-05-16T05:37:11.177Z,10.20
2023-05-16T05:38:11.193Z,9.40
2023-05-16T05:39:11.156Z,9.50
2023-05-16T05:40:11.143Z,9.50
2023-05-16T05:41:11.141Z,9.70
2023-05-16T05:42:11.154Z,9.90
2023-05-16T05:43:11.151Z,8.30
2023-05-16T05:44:11.119Z,8.20
2023-05-16T05:45:11.103Z,7.80
2023-05-16T05:46:11.219Z,7.90
2023-05-16T05:47:11.115Z,7.90
2023-05-16T05:48:11.196Z,7.90
2023-05-16T05:49:11.080Z,8.30
2023-05-16T05:50:11.080Z,7.00
2023-05-16T05:51:11.068Z,7.40
2023-05-16T05:52:11.095Z,7.90
2023-05-16T05:53:11.050Z,7.20
2023-05-16T05:54:11.046Z,6.70
2023-05-16T05:55:11.037Z,7.60
2023-05-16T05:56:11.050Z,7.20
2023-05-16T05:57:11.043Z,6.90
2023-05-16T05:58:11.013Z,6.90
2023-05-16T05:59:11.009Z,7.80
2023-05-16T06:00:11.001Z,7.70
2023-05-16T06:01:11.020Z,7.50
2023-05-16T06:02:11.033Z,7.20
2023-05-16T06:03:11.044Z,7.60
2023-05-16T06:04:10.970Z,7.60
2023-05-16T06:05:11.042Z,7.30
2023-05-16T06:06:10.972Z,7.20
2023-05-16T06:07:10.942Z,8.30
2023-05-16T06:08:11.001Z,7.70
2023-05-16T06:09:10.924Z,7.70
2023-05-16T06:10:10.930Z,7.40
2023-05-16T06:11:10.951Z,7.00
2023-05-16T06:12:10.911Z,7.10
2023-05-16T06:13:10.911Z,8.10
2023-05-16T06:14:10.897Z,8.00
2023-05-16T06:15:10.906Z,7.60
2023-05-16T06:16:10.898Z,7.40
2023-05-16T06:17:10.942Z,7.30
2023-05-16T06:18:10.924Z,6.70
2023-05-16T06:19:10.868Z,6.90
2023-05-16T06:20:10.865Z,6.90
2023-05-16T06:21:10.826Z,6.30
2023-05-16T06:22:10.841Z,6.30
2023-05-16T06:23:10.817Z,5.60
2023-05-16T06:24:10.812Z,6.20
2023-05-16T06:25:10.833Z,6.00
2023-05-16T06:26:10.796Z,6.00
2023-05-16T06:27:10.792Z,6.20
2023-05-16T06:28:10.781Z,6.00
2023-05-16T06:29:10.771Z,6.70
2023-05-16T06:30:10.794Z,6.20
2023-05-16T06:31:10.784Z,6.70
2023-05-16T06:32:13.109Z,6.10
2023-05-16T06:33:11.744Z,5.80
2023-05-16T06:34:10.761Z,5.90
2023-05-16T06:35:10.766Z,5.50
2023-05-16T06:36:11.723Z,5.90
2023-05-16T06:37:10.713Z,5.80
2023-05-16T06:38:10.704Z,5.20
2023-05-16T06:39:10.718Z,5.70
2023-05-16T06:40:10.703Z,5.00
2023-05-16T06:41:10.687Z,5.10
2023-05-16T06:42:10.678Z,4.60
2023-05-16T06:43:10.671Z,4.60
2023-05-16T06:44:10.704Z,4.10
2023-05-16T06:45:10.650Z,4.20
2023-05-16T06:46:10.665Z,4.10
2023-05-16T06:47:10.673Z,3.90
2023-05-16T06:48:10.756Z,4.00
2023-05-16T06:49:10.666Z,4.10
2023-05-16T06:50:10.612Z,3.60
2023-05-16T06:51:10.607Z,3.50
2023-05-16T06:52:10.597Z,4.00
2023-05-16T06:53:10.614Z,3.40
2023-05-16T06:54:10.594Z,4.20
2023-05-16T06:55:10.569Z,3.40
2023-05-16T06:56:10.565Z,3.50
2023-05-16T06:57:10.578Z,3.10
2023-05-16T06:58:10.568Z,3.60
2023-05-16T06:59:10.541Z,3.50
2023-05-16T07:00:10.536Z,3.20
2023-05-16T07:01:10.570Z,3.00
2023-05-16T07:02:10.579Z,2.60
2023-05-16T07:03:10.631Z,2.90
2023-05-16T07:04:10.606Z,2.70
2023-05-16T07:05:10.513Z,3.20
2023-05-16T07:06:10.478Z,3.00
2023-05-16T07:07:10.495Z,2.80
2023-05-16T07:08:10.580Z,2.50
2023-05-16T07:09:10.483Z,3.30
2023-05-16T07:10:10.450Z,2.60
2023-05-16T07:11:10.442Z,2.30
2023-05-16T07:12:10.464Z,2.40
2023-05-16T07:13:10.432Z,2.40
2023-05-16T07:14:10.431Z,2.20
2023-05-16T07:15:10.413Z,2.10
2023-05-16T07:16:10.496Z,2.20
2023-05-16T07:17:11.323Z,2.00
2023-05-16T07:18:10.442Z,2.00
2023-05-16T07:19:10.416Z,1.90
2023-05-16T07:20:10.369Z,1.70
2023-05-16T07:21:10.391Z,1.60
2023-05-16T07:22:10.356Z,1.70
2023-05-16T07:23:10.372Z,1.70
2023-05-16T07:24:10.347Z,1.40
2023-05-16T07:25:10.334Z,1.50
2023-05-16T07:26:10.351Z,1.30
2023-05-16T07:27:10.318Z,1.50
2023-05-16T07:28:10.314Z,1.30
2023-05-16T07:29:10.306Z,1.90
2023-05-16T07:30:10.321Z,1.50
2023-05-16T07:31:10.306Z,1.80
2023-05-16T07:32:10.432Z,1.50
2023-05-16T07:33:10.315Z,1.40
2023-05-16T07:34:10.266Z,1.70
2023-05-16T07:35:10.306Z,1.30
2023-05-16T07:36:16.638Z,1.10
2023-05-16T07:37:12.243Z,0.90
2023-05-16T07:38:10.234Z,1.20
2023-05-16T07:39:10.318Z,1.20
2023-05-16T07:40:10.250Z,1.20
2023-05-16T07:41:10.217Z,1.20
2023-05-16T07:42:10.269Z,1.10
2023-05-16T07:43:10.195Z,1.00
2023-05-16T07:44:10.210Z,1.20
2023-05-16T07:45:10.210Z,1.20
2023-05-16T07:46:10.227Z,1.20
2023-05-16T07:47:10.161Z,0.90
2023-05-16T07:48:10.245Z,1.10
2023-05-16T07:49:10.164Z,1.50
2023-05-16T07:50:10.164Z,1.00
2023-05-16T07:51:10.130Z,1.30
2023-05-16T07:52:10.124Z,1.10
2023-05-16T07:53:10.112Z,1.50
2023-05-16T07:54:10.123Z,1.90
2023-05-16T07:55:10.096Z,1.40
2023-05-16T07:56:10.085Z,1.40
2023-05-16T07:57:10.073Z,1.70
2023-05-16T07:58:10.067Z,1.30
2023-05-16T07:59:10.131Z,1.30
2023-05-16T08:00:10.048Z,1.30
2023-05-16T08:01:10.054Z,1.10
2023-05-16T08:02:10.066Z,1.30
2023-05-16T08:03:10.148Z,0.90
2023-05-16T08:04:10.049Z,1.10
2023-05-16T08:05:10.031Z,1.00
2023-05-16T08:06:10.084Z,0.90
2023-05-16T08:07:10.024Z,1.20
2023-05-16T08:08:10.003Z,1.90
2023-05-16T08:09:10.003Z,1.10
2023-05-16T08:10:12.560Z,0.60
2023-05-16T08:11:10.049Z,1.00
2023-05-16T08:12:09.949Z,1.10
2023-05-16T08:13:09.968Z,1.00
2023-05-16T08:14:09.979Z,1.20
2023-05-16T08:15:09.920Z,1.00
2023-05-16T08:16:10.922Z,1.70
2023-05-16T08:17:09.914Z,1.10
2023-05-16T08:18:09.958Z,1.40
2023-05-16T08:19:09.935Z,1.30
2023-05-16T08:20:09.895Z,1.20
2023-05-16T08:21:09.893Z,1.10
2023-05-16T08:22:09.876Z,1.40
2023-05-16T08:23:09.894Z,1.10
2023-05-16T08:24:09.867Z,1.30
2023-05-16T08:25:09.848Z,2.00
2023-05-16T08:26:09.841Z,1.60
2023-05-16T08:27:09.874Z,1.60
2023-05-16T08:28:09.853Z,1.30
2023-05-16T08:29:09.822Z,1.50
2023-05-16T08:30:09.805Z,1.40
2023-05-16T08:31:09.835Z,1.70
2023-05-16T08:32:09.835Z,1.50
2023-05-16T08:33:09.837Z,1.60
2023-05-16T08:34:09.777Z,1.60
2023-05-16T08:35:09.770Z,1.30
2023-05-16T08:36:09.766Z,1.60
2023-05-16T08:37:09.788Z,1.50
2023-05-16T08:38:09.737Z,1.40
2023-05-16T08:39:09.732Z,1.50
2023-05-16T08:40:09.724Z,1.80
2023-05-16T08:41:09.720Z,1.10
2023-05-16T08:42:09.741Z,1.80
2023-05-16T08:43:09.714Z,1.80
2023-05-16T08:44:09.691Z,1.20
2023-05-16T08:45:09.688Z,1.30
2023-05-16T08:46:09.699Z,1.50
2023-05-16T08:47:09.751Z,1.60
2023-05-16T08:48:10.642Z,1.60
2023-05-16T08:49:10.666Z,2.00
2023-05-16T08:50:09.659Z,1.90
2023-05-16T08:51:09.665Z,1.60
2023-05-16T08:52:09.631Z,2.00
2023-05-16T08:53:09.631Z,1.90
2023-05-16T08:54:09.622Z,1.20
2023-05-16T08:55:11.654Z,2.10
2023-05-16T08:56:10.629Z,1.70
2023-05-16T08:57:10.611Z,1.70
2023-05-16T08:58:09.590Z,1.90
2023-05-16T08:59:09.798Z,1.40
2023-05-16T09:00:09.580Z,1.70
2023-05-16T09:01:09.625Z,1.60
2023-05-16T09:02:09.563Z,1.40
2023-05-16T09:03:09.599Z,1.70
2023-05-16T09:04:09.596Z,1.60
2023-05-16T09:05:09.568Z,1.80
2023-05-16T09:06:09.572Z,1.50
2023-05-16T09:07:09.541Z,1.80
2023-05-16T09:08:09.517Z,3.10
2023-05-16T09:09:09.513Z,1.70
2023-05-16T09:10:09.778Z,1.50
2023-05-16T09:11:09.486Z,2.00
2023-05-16T09:12:09.483Z,1.60
2023-05-16T09:13:09.480Z,2.20
2023-05-16T09:14:09.499Z,1.60
2023-05-16T09:15:09.503Z,1.80
2023-05-16T09:16:09.453Z,2.10
2023-05-16T09:17:12.108Z,2.00
2023-05-16T09:18:10.524Z,1.80
2023-05-16T09:19:09.468Z,1.70
2023-05-16T09:20:09.419Z,1.70
2023-05-16T09:21:09.415Z,1.70
2023-05-16T09:22:09.410Z,1.80
2023-05-16T09:23:09.401Z,1.80
2023-05-16T09:24:10.422Z,1.60
2023-05-16T09:25:18.353Z,2.20
2023-05-16T09:26:10.381Z,2.20
2023-05-16T09:27:09.371Z,2.20
2023-05-16T09:28:09.467Z,1.70
2023-05-16T09:29:09.382Z,1.70
2023-05-16T09:30:09.708Z,2.00
2023-05-16T09:31:09.402Z,1.80
2023-05-16T09:32:09.335Z,2.80
2023-05-16T09:33:09.422Z,2.40
2023-05-16T09:34:09.370Z,1.60
2023-05-16T09:35:09.314Z,1.80
2023-05-16T09:36:09.304Z,1.70
2023-05-16T09:37:09.311Z,2.10
2023-05-16T09:38:09.311Z,2.40
2023-05-16T09:39:09.272Z,2.10
2023-05-16T09:40:09.267Z,2.20
2023-05-16T09:41:09.260Z,2.10
2023-05-16T09:42:09.256Z,2.10
2023-05-16T09:43:09.288Z,1.60
2023-05-16T09:44:41.147Z,1.90
2023-05-16T09:45:09.249Z,1.50
2023-05-16T09:46:09.258Z,2.20
2023-05-16T09:47:09.221Z,1.40
2023-05-16T09:48:09.354Z,1.60
2023-05-16T09:49:09.213Z,2.00
2023-05-16T09:50:09.195Z,1.60
2023-05-16T09:51:09.712Z,2.20
2023-05-16T09:52:09.427Z,1.80
2023-05-16T09:53:09.194Z,1.60
2023-05-16T09:54:09.168Z,1.70
2023-05-16T09:55:09.155Z,1.90
2023-05-16T09:56:09.150Z,1.50
2023-05-16T09:57:09.162Z,1.60
2023-05-16T09:58:09.469Z,2.00
2023-05-16T09:59:09.130Z,1.80
2023-05-16T10:00:09.110Z,1.90
2023-05-16T10:01:09.112Z,1.70
2023-05-16T10:02:09.161Z,1.60
2023-05-16T10:03:09.170Z,1.70
2023-05-16T10:04:09.209Z,1.60
2023-05-16T10:05:09.067Z,1.80
2023-05-16T10:06:09.115Z,1.70
2023-05-16T10:07:09.078Z,1.80
2023-05-16T10:08:09.046Z,1.90
2023-05-16T10:09:09.055Z,1.70
2023-05-16T10:10:09.033Z,2.20
2023-05-16T10:11:09.081Z,1.60
2023-05-16T10:12:09.095Z,1.50
2023-05-16T10:13:09.016Z,1.60
2023-05-16T10:14:08.998Z,1.30
2023-05-16T10:15:08.982Z,1.20
2023-05-16T10:16:10.064Z,1.60
2023-05-16T10:17:09.007Z,2.10
2023-05-16T10:18:08.979Z,1.30
2023-05-16T10:19:08.985Z,1.70
2023-05-16T10:20:08.966Z,1.20
2023-05-16T10:21:11.200Z,1.80
2023-05-16T10:22:09.968Z,1.30
2023-05-16T10:23:08.932Z,1.40
2023-05-16T10:24:08.923Z,1.80
2023-05-16T10:25:08.907Z,1.40
2023-05-16T10:26:08.941Z,2.00
2023-05-16T10:27:08.927Z,1.40
2023-05-16T10:28:08.897Z,1.50
2023-05-16T10:29:08.880Z,1.30
2023-05-16T10:30:08.874Z,1.50
2023-05-16T10:31:08.893Z,1.30
2023-05-16T10:32:08.944Z,1.80
2023-05-16T10:33:09.090Z,1.30
2023-05-16T10:34:08.842Z,1.40
2023-05-16T10:35:09.007Z,1.50
2023-05-16T10:36:08.860Z,1.90
2023-05-16T10:37:08.840Z,1.60
2023-05-16T10:38:08.810Z,1.30
2023-05-16T10:39:08.803Z,1.20
2023-05-16T10:40:08.822Z,1.30
2023-05-16T10:41:08.868Z,1.60
2023-05-16T10:42:08.768Z,1.40
2023-05-16T10:43:48.667Z,1.10
2023-05-16T10:44:08.769Z,1.30
2023-05-16T10:45:08.794Z,1.40
2023-05-16T10:46:08.892Z,1.40
2023-05-16T10:47:08.736Z,1.30
2023-05-16T10:48:08.918Z,1.40
2023-05-16T10:49:08.725Z,1.00
2023-05-16T10:50:08.743Z,2.20
2023-05-16T10:51:08.776Z,1.10
2023-05-16T10:52:08.730Z,1.20
2023-05-16T10:53:08.692Z,1.40
2023-05-16T10:54:08.710Z,1.10
2023-05-16T10:55:08.705Z,1.10
2023-05-16T10:56:08.668Z,1.60
2023-05-16T10:57:08.660Z,1.30
2023-05-16T10:58:08.695Z,1.30
2023-05-16T10:59:08.670Z,1.30
2023-05-16T11:00:08.643Z,1.30
2023-05-16T11:01:08.670Z,1.40
2023-05-16T11:02:08.657Z,1.10
2023-05-16T11:03:09.575Z,1.40
2023-05-16T11:04:08.657Z,1.70
2023-05-16T11:05:08.616Z,1.00
2023-05-16T11:06:08.596Z,1.20
2023-05-16T11:07:09.423Z,1.20
2023-05-16T11:08:08.593Z,1.40
2023-05-16T11:09:08.592Z,1.90
2023-05-16T11:10:08.614Z,1.10
2023-05-16T11:11:08.547Z,1.00
2023-05-16T11:12:08.551Z,1.80
2023-05-16T11:13:08.564Z,1.10
2023-05-16T11:14:08.533Z,1.30
2023-05-16T11:15:08.505Z,1.50
2023-05-16T11:16:08.523Z,1.50
2023-05-16T11:17:08.528Z,1.50
2023-05-16T11:18:08.560Z,1.40
2023-05-16T11:19:08.585Z,1.50
2023-05-16T11:20:08.476Z,1.50
2023-05-16T11:21:09.463Z,1.30
2023-05-16T11:22:08.490Z,1.10
2023-05-16T11:23:08.541Z,1.20
2023-05-16T11:24:08.445Z,1.10
2023-05-16T11:25:08.464Z,1.50
2023-05-16T11:26:08.427Z,1.10
2023-05-16T11:27:08.455Z,1.20
2023-05-16T11:28:08.411Z,1.40
2023-05-16T11:29:08.410Z,1.30
2023-05-16T11:30:08.393Z,1.00
2023-05-16T11:31:09.494Z,1.30
2023-05-16T11:32:08.434Z,1.40
2023-05-16T11:33:08.407Z,2.00
2023-05-16T11:34:08.373Z,1.20
2023-05-16T11:35:08.365Z,1.10
2023-05-16T11:36:15.880Z,1.40
2023-05-16T11:37:10.379Z,1.30
2023-05-16T11:38:08.339Z,1.90
2023-05-16T11:39:08.446Z,1.40
2023-05-16T11:40:08.323Z,1.30
2023-05-16T11:41:08.366Z,1.40
2023-05-16T11:42:08.350Z,0.90
2023-05-16T11:43:08.301Z,1.20
2023-05-16T11:44:08.309Z,2.00
2023-05-16T11:45:08.331Z,1.20
2023-05-16T11:46:08.349Z,1.30
2023-05-16T11:47:08.372Z,1.10
2023-05-16T11:48:08.337Z,1.40
2023-05-16T11:49:08.257Z,0.90
2023-05-16T11:50:08.254Z,0.80
2023-05-16T11:51:08.260Z,2.30
2023-05-16T11:52:08.230Z,1.20
2023-05-16T11:53:08.969Z,0.90
2023-05-16T11:54:08.205Z,0.80
2023-05-16T11:55:08.205Z,1.50
2023-05-16T11:56:08.245Z,0.90
2023-05-16T11:57:08.191Z,1.50
2023-05-16T11:58:08.372Z,1.00
2023-05-16T11:59:08.179Z,0.80
2023-05-16T12:00:08.202Z,1.10
2023-05-16T12:01:08.237Z,1.40
2023-05-16T12:02:08.166Z,0.90
2023-05-16T12:03:08.334Z,1.10
2023-05-16T12:04:08.202Z,1.00
2023-05-16T12:05:09.195Z,0.80
2023-05-16T12:06:08.157Z,0.90
2023-05-16T12:07:08.120Z,1.00
2023-05-16T12:08:08.123Z,1.30
2023-05-16T12:09:08.093Z,1.00
2023-05-16T12:10:08.112Z,1.00
2023-05-16T12:11:08.085Z,1.30
2023-05-16T12:12:08.071Z,1.00
2023-05-16T12:13:08.082Z,0.90
2023-05-16T12:14:08.061Z,1.10
2023-05-16T12:15:08.086Z,1.10
2023-05-16T12:16:08.083Z,1.10
2023-05-16T12:17:08.053Z,1.20
2023-05-16T12:18:08.057Z,0.90
2023-05-16T12:19:08.182Z,1.00
2023-05-16T12:20:08.032Z,1.10
2023-05-16T12:21:08.002Z,1.00
2023-05-16T12:22:07.996Z,1.00
2023-05-16T12:23:07.991Z,1.10
2023-05-16T12:24:08.037Z,0.80
2023-05-16T12:25:07.967Z,1.10
2023-05-16T12:26:07.994Z,1.00
2023-05-16T12:27:07.980Z,0.80
2023-05-16T12:28:07.948Z,1.10
2023-05-16T12:29:07.979Z,1.00
2023-05-16T12:30:07.933Z,0.90
2023-05-16T12:31:11.267Z,1.40
2023-05-16T12:32:09.966Z,1.10
2023-05-16T12:33:08.415Z,1.20
2023-05-16T12:34:08.928Z,1.30
2023-05-16T12:35:07.893Z,1.00
2023-05-16T12:36:07.885Z,1.00
2023-05-16T12:37:07.876Z,1.00
2023-05-16T12:38:07.955Z,1.30
2023-05-16T12:39:09.472Z,0.90
2023-05-16T12:40:07.871Z,1.00
2023-05-16T12:41:07.855Z,1.20
2023-05-16T12:42:07.846Z,1.10
2023-05-16T12:43:07.872Z,1.00
2023-05-16T12:44:07.840Z,1.10
2023-05-16T12:45:07.814Z,1.00
2023-05-16T12:46:07.830Z,1.10
2023-05-16T12:47:07.801Z,1.20
2023-05-16T12:48:07.854Z,0.90
2023-05-16T12:49:07.775Z,1.10
2023-05-16T12:50:07.781Z,1.00
2023-05-16T12:51:07.769Z,1.00
2023-05-16T12:52:07.796Z,0.80
2023-05-16T12:53:07.779Z,1.20
2023-05-16T12:54:10.436Z,1.00
2023-05-16T12:55:08.737Z,0.80
2023-05-16T12:56:07.741Z,0.80
2023-05-16T12:57:07.778Z,0.80
2023-05-16T12:58:07.842Z,1.20
2023-05-16T12:59:07.731Z,1.40
2023-05-16T13:00:07.702Z,1.30
2023-05-16T13:01:07.730Z,0.60
2023-05-16T13:02:07.779Z,1.00
2023-05-16T13:03:07.935Z,1.00
2023-05-16T13:04:07.997Z,1.10
2023-05-16T13:05:07.684Z,1.10
2023-05-16T13:06:07.678Z,1.00
2023-05-16T13:07:07.681Z,1.20
2023-05-16T13:08:07.640Z,1.10
2023-05-16T13:09:07.637Z,1.50